createdAt,value
2018-10-03T00:00:43.007Z,3.07
2018-10-03T00:03:13.491Z,2.33
2018-10-03T00:05:43.506Z,3.03
2018-10-03T00:08:13.574Z,3.33
2018-10-03T00:10:44.667Z,3.30
2018-10-03T00:13:15.083Z,2.97
2018-10-03T00:15:45.038Z,2.20
2018-10-03T00:18:15.068Z,2.80
2018-10-03T00:20:45.087Z,2.80
2018-10-03T00:23:15.142Z,2.33
2018-10-03T00:25:44.889Z,3.10
2018-10-03T00:28:15.349Z,2.93
2018-10-03T00:30:45.535Z,2.80
2018-10-03T00:33:15.480Z,3.17
2018-10-03T00:35:46.010Z,3.03
2018-10-03T00:38:15.958Z,3.20
2018-10-03T00:40:45.821Z,3.57
2018-10-03T00:43:16.037Z,3.27
2018-10-03T00:45:46.236Z,2.87
2018-10-03T00:48:16.435Z,2.83
2018-10-03T00:50:46.206Z,3.70
2018-10-03T00:53:16.642Z,2.63
2018-10-03T00:55:46.309Z,2.83
2018-10-03T00:58:16.858Z,3.60
2018-10-03T01:00:46.791Z,3.20
2018-10-03T01:03:16.717Z,3.10
2018-10-03T01:05:46.678Z,3.30
2018-10-03T01:08:17.304Z,2.77
2018-10-03T01:10:46.836Z,2.57
2018-10-03T01:13:17.248Z,3.80
2018-10-03T01:15:48.125Z,3.17
2018-10-03T01:18:18.008Z,3.13
2018-10-03T01:20:49.075Z,3.33
2018-10-03T01:23:19.994Z,3.03
2018-10-03T01:25:50.527Z,3.10
2018-10-03T01:28:20.743Z,3.93
2018-10-03T01:30:51.010Z,3.23
2018-10-03T01:33:21.063Z,3.10
2018-10-03T01:35:50.793Z,2.60
2018-10-03T01:38:21.837Z,3.03
2018-10-03T01:40:51.936Z,2.50
2018-10-03T01:43:21.680Z,2.90
2018-10-03T01:45:51.470Z,4.10
2018-10-03T01:48:21.176Z,3.23
2018-10-03T01:50:50.893Z,3.17
2018-10-03T01:53:21.179Z,2.70
2018-10-03T01:55:51.262Z,2.70
2018-10-03T01:58:21.063Z,3.70
2018-10-03T02:00:51.126Z,3.40
2018-10-03T02:03:20.919Z,2.97
2018-10-03T02:05:50.969Z,3.57
2018-10-03T02:08:21.443Z,3.63
2018-10-03T02:10:51.271Z,3.00
2018-10-03T02:13:21.284Z,3.00
2018-10-03T02:15:52.768Z,2.83
2018-10-03T02:18:22.728Z,3.00
2018-10-03T02:20:52.860Z,2.53
2018-10-03T02:23:22.707Z,3.53
2018-10-03T02:25:52.609Z,3.17
2018-10-03T02:28:22.700Z,3.10
2018-10-03T02:30:52.755Z,2.70
2018-10-03T02:33:22.585Z,2.50
2018-10-03T02:35:52.570Z,3.20
2018-10-03T02:38:22.332Z,2.80
2018-10-03T02:40:52.218Z,2.53
2018-10-03T02:43:22.361Z,2.43
2018-10-03T02:45:52.426Z,2.80
2018-10-03T02:48:22.273Z,3.53
2018-10-03T02:50:52.414Z,3.00
2018-10-03T02:53:22.215Z,3.67
2018-10-03T02:55:52.109Z,2.20
2018-10-03T02:58:22.683Z,3.07
2018-10-03T03:00:52.864Z,3.30
2018-10-03T03:03:22.596Z,3.20
2018-10-03T03:05:52.332Z,2.83
2018-10-03T03:08:22.427Z,2.70
2018-10-03T03:10:52.439Z,3.80
2018-10-03T03:13:22.649Z,2.80
2018-10-03T03:15:52.379Z,3.00
2018-10-03T03:18:22.085Z,3.07
2018-10-03T03:20:52.580Z,3.07
2018-10-03T03:23:22.631Z,2.73
2018-10-03T03:25:52.440Z,2.83
2018-10-03T03:28:22.311Z,2.90
2018-10-03T03:30:52.670Z,3.10
2018-10-03T03:33:22.611Z,3.20
2018-10-03T03:35:52.904Z,3.10
2018-10-03T03:38:23.062Z,3.80
2018-10-03T03:40:52.768Z,2.70
2018-10-03T03:43:22.454Z,2.87
2018-10-03T03:45:52.691Z,2.60
2018-10-03T03:48:22.454Z,2.40
2018-10-03T03:50:52.220Z,2.63
2018-10-03T03:53:22.131Z,3.40
2018-10-03T03:55:52.143Z,2.83
2018-10-03T03:58:22.155Z,3.30
2018-10-03T04:00:52.495Z,2.60
2018-10-03T04:03:22.180Z,2.47
2018-10-03T04:05:51.919Z,2.57
2018-10-03T04:08:21.844Z,3.40
2018-10-03T04:10:51.761Z,3.93
2018-10-03T04:13:21.648Z,3.13
2018-10-03T04:15:53.120Z,3.27
2018-10-03T04:18:23.192Z,2.70
2018-10-03T04:20:52.911Z,2.90
2018-10-03T04:23:22.866Z,2.90
2018-10-03T04:25:53.708Z,3.90
2018-10-03T04:28:23.644Z,3.30
2018-10-03T04:30:54.041Z,3.30
2018-10-03T04:33:24.056Z,2.70
2018-10-03T04:35:54.059Z,3.27
2018-10-03T04:38:24.372Z,3.50
2018-10-03T04:40:54.728Z,3.30
2018-10-03T04:43:24.700Z,3.10
2018-10-03T04:45:54.807Z,2.90
2018-10-03T04:48:24.584Z,2.90
2018-10-03T04:50:54.268Z,2.87
2018-10-03T04:53:24.240Z,2.80
2018-10-03T04:55:54.293Z,3.10
2018-10-03T04:58:25.351Z,2.50
2018-10-03T05:00:55.373Z,2.43
2018-10-03T05:03:25.183Z,2.70
2018-10-03T05:05:55.476Z,3.03
2018-10-03T05:08:25.451Z,3.17
2018-10-03T05:10:55.874Z,2.80
2018-10-03T05:13:27.388Z,3.00
2018-10-03T05:15:57.283Z,2.70
2018-10-03T05:18:27.258Z,3.10
2018-10-03T05:20:57.350Z,2.93
2018-10-03T05:23:27.743Z,2.80
2018-10-03T05:25:57.603Z,2.80
2018-10-03T05:28:28.405Z,3.23
2018-10-03T05:30:58.479Z,2.80
2018-10-03T05:33:28.525Z,3.10
2018-10-03T05:35:58.740Z,3.40
2018-10-03T05:38:28.585Z,3.23
2018-10-03T05:40:58.855Z,2.53
2018-10-03T05:43:30.242Z,2.70
2018-10-03T05:46:00.397Z,3.03
2018-10-03T05:48:30.496Z,3.07
2018-10-03T05:51:01.660Z,2.70
2018-10-03T05:53:31.740Z,2.93
2018-10-03T05:56:02.337Z,3.17
2018-10-03T05:58:32.845Z,2.63
2018-10-03T06:01:02.999Z,2.80
2018-10-03T06:03:32.995Z,3.53
2018-10-03T06:06:03.736Z,3.00
2018-10-03T06:08:34.276Z,2.80
2018-10-03T06:11:04.351Z,2.50
2018-10-03T06:13:34.422Z,2.83
2018-10-03T06:16:04.623Z,2.30
2018-10-03T06:18:34.804Z,3.10
2018-10-03T06:21:04.990Z,3.63
2018-10-03T06:23:35.591Z,3.37
2018-10-03T06:26:05.812Z,2.90
2018-10-03T06:28:36.102Z,2.40
2018-10-03T06:31:07.219Z,2.97
2018-10-03T06:33:38.068Z,3.10
2018-10-03T06:36:08.243Z,2.60
2018-10-03T06:38:38.462Z,3.50
2018-10-03T06:41:08.437Z,3.27
2018-10-03T06:43:38.523Z,2.47
2018-10-03T06:46:09.656Z,2.40
2018-10-03T06:48:40.254Z,2.87
2018-10-03T06:51:10.198Z,3.33
2018-10-03T06:53:40.361Z,2.90
2018-10-03T06:56:11.837Z,2.40
2018-10-03T06:58:42.017Z,2.53
2018-10-03T07:01:12.052Z,3.00
2018-10-03T07:03:42.896Z,3.00
2018-10-03T07:06:14.022Z,3.57
2018-10-03T07:08:44.377Z,3.10
2018-10-03T07:11:14.699Z,3.00
2018-10-03T07:13:44.955Z,2.83
2018-10-03T07:16:15.980Z,2.57
2018-10-03T07:18:46.340Z,2.33
2018-10-03T07:21:16.739Z,2.63
2018-10-03T07:23:46.639Z,2.37
2018-10-03T07:26:17.695Z,3.10
2018-10-03T07:28:48.053Z,3.37
2018-10-03T07:31:18.876Z,2.10
2018-10-03T07:33:49.056Z,2.53
2018-10-03T07:36:20.232Z,2.33
2018-10-03T07:38:51.667Z,2.87
2018-10-03T07:41:21.727Z,1.93
2018-10-03T07:43:52.053Z,2.50
2018-10-03T07:46:22.716Z,2.43
2018-10-03T07:48:54.171Z,2.30
2018-10-03T07:51:24.316Z,2.73
2018-10-03T07:53:55.632Z,2.53
2018-10-03T07:56:25.797Z,2.00
2018-10-03T07:58:57.138Z,3.50
2018-10-03T08:01:29.600Z,2.53
2018-10-03T08:03:59.687Z,2.80
2018-10-03T08:06:30.465Z,2.77
2018-10-03T08:09:01.931Z,2.97
2018-10-03T08:11:32.164Z,3.17
2018-10-03T08:14:03.311Z,2.20
2018-10-03T08:16:34.473Z,2.10
2018-10-03T08:19:04.662Z,2.63
2018-10-03T08:21:36.372Z,2.00
2018-10-03T08:24:07.293Z,2.53
2018-10-03T08:26:38.592Z,2.93
2018-10-03T08:29:10.268Z,2.70
2018-10-03T08:31:40.630Z,2.00
2018-10-03T08:34:10.715Z,2.00
2018-10-03T08:36:41.888Z,2.33
2018-10-03T08:39:14.256Z,2.33
2018-10-03T08:41:44.237Z,1.93
2018-10-03T08:44:14.635Z,2.17
2018-10-03T08:46:44.892Z,2.10
2018-10-03T08:49:14.907Z,2.03
2018-10-03T08:51:45.095Z,2.37
2018-10-03T08:54:16.011Z,2.20
2018-10-03T08:56:46.263Z,2.27
2018-10-03T08:59:16.884Z,2.27
2018-10-03T09:01:47.445Z,1.97
2018-10-03T09:04:17.504Z,2.20
2018-10-03T09:06:47.632Z,1.70
2018-10-03T09:09:18.028Z,2.23
2018-10-03T09:11:48.012Z,2.47
2018-10-03T09:14:17.887Z,1.90
2018-10-03T09:16:47.801Z,2.60
2018-10-03T09:19:18.924Z,2.27
2018-10-03T09:21:49.078Z,2.13
2018-10-03T09:24:19.913Z,2.33
2018-10-03T09:26:50.379Z,2.27
2018-10-03T09:29:20.440Z,2.80
2018-10-03T09:31:51.493Z,2.70
2018-10-03T09:34:22.281Z,2.37
2018-10-03T09:36:53.779Z,2.20
2018-10-03T09:39:25.176Z,2.03
2018-10-03T09:41:55.865Z,1.77
2018-10-03T09:44:25.800Z,2.03
2018-10-03T09:46:56.297Z,2.07
2018-10-03T09:49:27.593Z,2.30
2018-10-03T09:51:58.168Z,2.10
2018-10-03T09:54:28.211Z,1.90
2018-10-03T09:56:58.455Z,2.07
2018-10-03T09:59:28.252Z,2.03
2018-10-03T10:01:58.323Z,1.87
2018-10-03T10:04:29.364Z,2.40
2018-10-03T10:06:59.813Z,1.70
2018-10-03T10:09:30.007Z,2.70
2018-10-03T10:12:00.153Z,2.30
2018-10-03T10:14:31.229Z,2.00
2018-10-03T10:17:02.553Z,2.33
2018-10-03T10:19:32.497Z,2.03
2018-10-03T10:22:04.419Z,2.60
2018-10-03T10:24:34.617Z,2.23
2018-10-03T10:27:05.323Z,2.60
2018-10-03T10:29:35.339Z,2.77
2018-10-03T10:32:06.173Z,2.17
2018-10-03T10:34:38.080Z,1.87
2018-10-03T10:37:08.361Z,1.63
2018-10-03T10:39:38.818Z,3.20
2018-10-03T10:42:08.961Z,2.40
2018-10-03T10:44:38.804Z,2.13
2018-10-03T10:47:09.790Z,1.90
2018-10-03T10:49:40.039Z,1.70
2018-10-03T10:52:10.811Z,2.00
2018-10-03T10:54:41.919Z,1.70
2018-10-03T10:57:12.074Z,2.07
2018-10-03T10:59:42.080Z,2.30
2018-10-03T11:02:12.033Z,1.87
2018-10-03T11:04:42.408Z,2.23
2018-10-03T11:07:12.715Z,2.60
2018-10-03T11:09:43.796Z,1.83
2018-10-03T11:12:14.843Z,1.70
2018-10-03T11:14:45.060Z,1.80
2018-10-03T11:17:15.737Z,2.00
2018-10-03T11:19:46.041Z,1.90
2018-10-03T11:22:18.288Z,2.10
2018-10-03T11:24:48.499Z,2.00
2018-10-03T11:27:19.010Z,2.20
2018-10-03T11:29:50.203Z,1.40
2018-10-03T11:32:21.111Z,1.50
2018-10-03T11:34:50.956Z,1.80
2018-10-03T11:37:21.164Z,2.10
2018-10-03T11:39:51.476Z,1.93
2018-10-03T11:42:21.451Z,2.07
2018-10-03T11:44:51.455Z,1.70
2018-10-03T11:47:22.152Z,1.53
2018-10-03T11:49:52.827Z,1.73
2018-10-03T11:52:23.593Z,1.90
2018-10-03T11:55:02.522Z,1.73
2018-10-03T11:57:32.554Z,1.70
2018-10-03T12:00:02.870Z,1.90
2018-10-03T12:02:33.746Z,1.60
2018-10-03T12:05:03.882Z,2.90
2018-10-03T12:07:34.172Z,1.80
2018-10-03T12:10:05.221Z,2.17
2018-10-03T12:12:35.417Z,1.83
2018-10-03T12:15:07.043Z,1.87
2018-10-03T12:17:38.531Z,1.77
2018-10-03T12:20:08.607Z,1.53
2018-10-03T12:22:38.396Z,1.60
2018-10-03T12:25:10.078Z,1.93
2018-10-03T12:30:18.134Z,1.80
2018-10-03T12:32:48.432Z,1.77
2018-10-03T12:35:39.906Z,1.30
2018-10-03T12:38:09.959Z,1.47
2018-10-03T12:40:40.765Z,1.73
2018-10-03T12:43:11.410Z,1.40
2018-10-03T12:45:42.456Z,1.63
2018-10-03T12:48:13.023Z,1.87
2018-10-03T12:50:44.459Z,1.50
2018-10-03T12:53:16.366Z,1.87
2018-10-03T12:55:46.793Z,1.90
2018-10-03T12:58:17.519Z,2.17
2018-10-03T13:00:48.388Z,1.87
2018-10-03T13:03:18.781Z,2.20
2018-10-03T13:05:50.765Z,1.47
2018-10-03T13:08:22.024Z,1.33
2018-10-03T13:10:52.035Z,1.50
2018-10-03T13:13:22.277Z,1.50
2018-10-03T13:15:53.225Z,1.40
2018-10-03T13:18:24.120Z,1.57
2018-10-03T13:20:55.566Z,1.63
2018-10-03T13:23:25.659Z,1.80
2018-10-03T13:25:56.962Z,2.07
2018-10-03T13:28:27.640Z,2.03
2018-10-03T13:30:58.191Z,2.00
2018-10-03T13:33:27.946Z,1.83
2018-10-03T13:35:58.588Z,1.43
2018-10-03T13:38:30.838Z,1.73
2018-10-03T13:41:01.439Z,1.77
2018-10-03T13:43:32.420Z,1.80
2018-10-03T13:46:02.532Z,1.93
2018-10-03T13:48:32.938Z,1.77
2018-10-03T13:51:03.850Z,2.47
2018-10-03T13:53:34.146Z,2.37
2018-10-03T13:56:04.551Z,2.20
2018-10-03T13:58:34.764Z,1.93
2018-10-03T14:01:06.347Z,1.37
2018-10-03T14:03:36.721Z,1.80
2018-10-03T14:06:07.321Z,2.30
2018-10-03T14:08:37.450Z,2.00
2018-10-03T14:11:07.887Z,1.80
2018-10-03T14:13:39.713Z,2.00
2018-10-03T14:16:10.388Z,2.13
2018-10-03T14:18:40.750Z,1.57
2018-10-03T14:21:12.012Z,1.80
2018-10-03T14:23:43.012Z,1.77
2018-10-03T14:26:13.040Z,1.80
2018-10-03T14:28:43.127Z,1.70
2018-10-03T14:31:14.642Z,1.57
2018-10-03T14:33:45.104Z,1.60
2018-10-03T14:36:15.800Z,1.67
2018-10-03T14:38:47.937Z,2.07
2018-10-03T14:41:19.096Z,1.50
2018-10-03T14:43:49.169Z,1.47
2018-10-03T14:46:20.984Z,1.47
2018-10-03T14:48:51.751Z,1.83
2018-10-03T14:51:22.279Z,1.50
2018-10-03T14:53:52.538Z,1.50
2018-10-03T14:56:22.969Z,2.30
2018-10-03T14:58:53.933Z,1.90
2018-10-03T15:01:24.845Z,1.90
2018-10-03T15:03:54.935Z,1.90
2018-10-03T15:06:24.999Z,4.00
2018-10-03T15:08:55.510Z,2.07
2018-10-03T15:11:27.503Z,1.90
2018-10-03T15:13:59.982Z,2.17
2018-10-03T15:16:29.984Z,1.80
2018-10-03T15:19:00.807Z,1.80
2018-10-03T15:21:30.623Z,1.53
2018-10-03T15:24:01.059Z,2.07
2018-10-03T15:26:31.915Z,1.70
2018-10-03T15:29:02.943Z,2.03
2018-10-03T15:31:33.299Z,1.80
2018-10-03T15:34:04.170Z,2.20
2018-10-03T15:36:34.718Z,1.47
2018-10-03T15:39:06.604Z,2.30
2018-10-03T15:41:36.537Z,2.33
2018-10-03T15:44:07.623Z,1.60
2018-10-03T15:46:37.951Z,2.50
2018-10-03T15:49:09.835Z,2.20
2018-10-03T15:51:41.187Z,1.80
2018-10-03T15:54:11.276Z,1.70
2018-10-03T15:56:42.402Z,2.00
2018-10-03T15:59:12.472Z,1.60
2018-10-03T16:01:42.683Z,1.60
2018-10-03T16:04:13.904Z,1.50
2018-10-03T16:06:44.117Z,1.73
2018-10-03T16:09:14.902Z,1.70
2018-10-03T16:11:45.217Z,1.63
2018-10-03T16:14:15.405Z,1.67
2018-10-03T16:16:45.211Z,2.03
2018-10-03T16:19:15.912Z,1.97
2018-10-03T16:21:46.129Z,2.13
2018-10-03T16:24:16.237Z,1.73
2018-10-03T16:26:47.548Z,1.63
2018-10-03T16:29:18.877Z,1.90
2018-10-03T16:31:49.304Z,1.60
2018-10-03T16:34:19.704Z,1.77
2018-10-03T16:36:51.322Z,1.67
2018-10-03T16:39:21.585Z,2.00
2018-10-03T16:41:51.539Z,2.20
2018-10-03T16:44:21.863Z,2.20
2018-10-03T16:46:53.644Z,2.30
2018-10-03T16:49:28.039Z,1.93
2018-10-03T16:51:58.274Z,1.87
2018-10-03T16:54:30.018Z,2.10
2018-10-03T16:57:02.028Z,1.83
2018-10-03T16:59:32.702Z,2.00
2018-10-03T17:02:05.386Z,2.33
2018-10-03T17:04:35.514Z,2.03
2018-10-03T17:07:06.305Z,2.00
2018-10-03T17:09:37.315Z,2.00
2018-10-03T17:12:10.566Z,1.60
2018-10-03T17:14:41.117Z,2.23
2018-10-03T17:17:11.716Z,1.83
2018-10-03T17:19:48.082Z,1.83
2018-10-03T17:22:19.448Z,1.90
2018-10-03T17:24:50.725Z,2.10
2018-10-03T17:27:22.012Z,1.47
2018-10-03T17:29:52.328Z,2.50
2018-10-03T17:32:23.242Z,1.87
2018-10-03T17:34:53.900Z,2.00
2018-10-03T17:37:26.107Z,1.83
2018-10-03T17:39:57.748Z,1.80
2018-10-03T17:42:29.672Z,2.07
2018-10-03T17:45:03.272Z,1.80
2018-10-03T17:47:33.631Z,2.23
2018-10-03T17:50:04.683Z,2.43
2018-10-03T17:52:37.099Z,2.30
2018-10-03T17:55:08.294Z,2.10
2018-10-03T17:57:42.307Z,1.80
2018-10-03T18:00:12.827Z,2.37
2018-10-03T18:02:43.164Z,2.23
2018-10-03T18:05:15.279Z,1.80
2018-10-03T18:07:45.718Z,2.23
2018-10-03T18:10:21.316Z,1.97
2018-10-03T18:12:51.415Z,2.27
2018-10-03T18:15:22.471Z,2.40
2018-10-03T18:17:52.575Z,2.20
2018-10-03T18:20:23.113Z,1.90
2018-10-03T18:22:53.384Z,2.37
2018-10-03T18:25:24.845Z,1.70
2018-10-03T18:27:55.843Z,2.43
2018-10-03T18:30:26.163Z,2.37
2018-10-03T18:32:57.092Z,2.43
2018-10-03T18:35:29.223Z,2.30
2018-10-03T18:38:00.763Z,2.37
2018-10-03T18:40:31.892Z,2.40
2018-10-03T18:43:02.711Z,1.63
2018-10-03T18:45:33.055Z,1.90
2018-10-03T18:48:05.823Z,2.00
2018-10-03T18:50:37.201Z,2.53
2018-10-03T18:53:08.295Z,2.07
2018-10-03T18:55:38.296Z,1.90
2018-10-03T18:58:10.167Z,2.20
2018-10-03T19:00:41.608Z,2.00
2018-10-03T19:03:12.477Z,2.00
2018-10-03T19:05:43.575Z,2.00
2018-10-03T19:08:14.369Z,2.10
2018-10-03T19:10:47.077Z,2.23
2018-10-03T19:13:18.633Z,2.40
2018-10-03T19:15:48.520Z,1.70
2018-10-03T19:18:19.567Z,1.97
2018-10-03T19:20:50.679Z,1.50
2018-10-03T19:23:21.408Z,2.27
2018-10-03T19:25:52.287Z,2.17
2018-10-03T19:28:22.879Z,2.20
2018-10-03T19:30:53.117Z,2.03
2018-10-03T19:33:24.655Z,2.10
2018-10-03T19:35:56.686Z,1.70
2018-10-03T19:38:28.623Z,2.20
2018-10-03T19:41:02.325Z,2.20
2018-10-03T19:43:42.629Z,2.30
2018-10-03T19:46:15.507Z,2.37
2018-10-03T19:49:01.521Z,2.47
2018-10-03T19:51:35.186Z,2.20
2018-10-03T19:54:09.800Z,2.33
2018-10-03T19:56:45.383Z,2.47
2018-10-03T19:59:18.842Z,2.37
2018-10-03T20:01:51.053Z,2.40
2018-10-03T20:04:23.602Z,2.60
2018-10-03T20:06:54.402Z,2.67
2018-10-03T20:09:24.893Z,2.60
2018-10-03T20:11:57.243Z,2.30
2018-10-03T20:14:29.908Z,2.77
2018-10-03T20:17:00.855Z,2.40
2018-10-03T20:19:33.601Z,2.83
2018-10-03T20:22:12.517Z,2.73
2018-10-03T20:24:45.175Z,2.50
2018-10-03T20:27:18.560Z,2.50
2018-10-03T20:29:52.728Z,2.77
2018-10-03T20:32:24.755Z,3.03
2018-10-03T20:34:58.268Z,3.07
2018-10-03T20:37:31.914Z,3.03
2018-10-03T20:40:04.549Z,3.10
2018-10-03T20:42:38.534Z,3.37
2018-10-03T20:45:11.073Z,3.23
2018-10-03T20:47:43.318Z,4.07
2018-10-03T20:50:13.990Z,3.80
2018-10-03T20:52:44.781Z,3.10
2018-10-03T20:55:18.932Z,3.90
2018-10-03T20:57:50.092Z,4.23
2018-10-03T21:00:20.347Z,3.50
2018-10-03T21:02:52.423Z,3.43
2018-10-03T21:05:22.508Z,3.80
2018-10-03T21:07:52.596Z,3.27
2018-10-03T21:10:22.536Z,3.83
2018-10-03T21:12:54.675Z,3.97
2018-10-03T21:18:07.975Z,3.40
2018-10-03T21:20:39.396Z,3.80
2018-10-03T21:23:12.640Z,4.37
2018-10-03T21:25:43.880Z,4.47
2018-10-03T21:28:21.504Z,3.57
2018-10-03T21:31:02.256Z,4.27
2018-10-03T21:33:39.732Z,4.40
2018-10-03T21:36:17.568Z,3.70
2018-10-03T21:39:07.344Z,4.00
2018-10-03T21:41:46.733Z,4.53
2018-10-03T21:44:21.265Z,5.60
2018-10-03T21:46:55.006Z,5.23
2018-10-03T21:49:27.956Z,6.37
2018-10-03T21:52:00.327Z,6.83
2018-10-03T21:54:35.706Z,7.23
2018-10-03T21:57:09.899Z,6.40
2018-10-03T21:59:43.169Z,6.17
2018-10-03T22:02:18.435Z,5.57
2018-10-03T22:04:50.643Z,5.20
2018-10-03T22:07:21.284Z,5.57
2018-10-03T22:09:52.500Z,4.90
2018-10-03T22:12:22.535Z,5.37
2018-10-03T22:14:53.801Z,5.17
2018-10-03T22:17:25.868Z,4.53
2018-10-03T22:19:57.727Z,4.30
2018-10-03T22:22:29.373Z,4.03
2018-10-03T22:25:02.083Z,3.73
2018-10-03T22:27:32.255Z,4.57
2018-10-03T22:30:02.435Z,4.10
2018-10-03T22:32:32.757Z,4.37
2018-10-03T22:35:06.164Z,5.20
2018-10-03T22:37:37.857Z,4.47
2018-10-03T22:40:14.904Z,5.03
2018-10-03T22:42:48.691Z,4.30
2018-10-03T22:45:22.485Z,4.37
2018-10-03T22:47:55.942Z,4.37
2018-10-03T22:50:28.885Z,3.77
2018-10-03T22:53:00.890Z,4.60
2018-10-03T22:55:36.053Z,3.83
2018-10-03T22:58:09.947Z,4.70
2018-10-03T23:00:43.740Z,4.87
2018-10-03T23:03:25.189Z,4.70
2018-10-03T23:05:57.464Z,4.93
2018-10-03T23:08:28.670Z,4.77
2018-10-03T23:11:04.613Z,4.90
2018-10-03T23:13:37.075Z,5.30
2018-10-03T23:16:10.102Z,5.20
2018-10-03T23:18:44.860Z,5.27
2018-10-03T23:21:17.544Z,5.17
2018-10-03T23:23:50.370Z,5.40
2018-10-03T23:26:21.354Z,4.73
2018-10-03T23:28:56.863Z,4.80
2018-10-03T23:31:27.731Z,4.57
2018-10-03T23:33:57.998Z,4.47
2018-10-03T23:36:28.480Z,4.60
2018-10-03T23:39:00.344Z,4.90
2018-10-03T23:41:30.435Z,5.00
2018-10-03T23:44:03.192Z,5.00
2018-10-03T23:46:33.907Z,4.40
2018-10-03T23:49:04.336Z,4.60
2018-10-03T23:51:34.527Z,4.90
2018-10-03T23:54:07.379Z,5.27
2018-10-03T23:56:38.810Z,4.80
2018-10-03T23:59:08.749Z,5.20
